sensor_id;sensor_type;location;lat;lon;timestamp;P1;durP1;ratioP1;P2;durP2;ratioP2
43363;SDS011;40636;52.424;-1.948;2024-02-04T00:02:00;0.50;;;0.50;;
43363;SDS011;40636;52.424;-1.948;2024-02-04T00:04:27;0.73;;;0.50;;
43363;SDS011;40636;52.424;-1.948;2024-02-04T00:06:54;0.50;;;0.50;;
43363;SDS011;40636;52.424;-1.948;2024-02-04T00:09:21;0.57;;;0.50;;
43363;SDS011;40636;52.424;-1.948;2024-02-04T00:11:49;0.55;;;0.52;;
43363;SDS011;40636;52.424;-1.948;2024-02-04T00:14:16;0.90;;;0.50;;
43363;SDS011;40636;52.424;-1.948;2024-02-04T00:16:42;0.50;;;0.50;;
43363;SDS011;40636;52.424;-1.948;2024-02-04T00:19:09;0.30;;;0.30;;
43363;SDS011;40636;52.424;-1.948;2024-02-04T00:21:36;0.57;;;0.40;;
43363;SDS011;40636;52.424;-1.948;2024-02-04T00:24:03;0.45;;;0.40;;
43363;SDS011;40636;52.424;-1.948;2024-02-04T00:26:30;0.85;;;0.60;;
43363;SDS011;40636;52.424;-1.948;2024-02-04T00:28:56;0.60;;;0.60;;
43363;SDS011;40636;52.424;-1.948;2024-02-04T00:31:23;1.63;;;0.50;;
43363;SDS011;40636;52.424;-1.948;2024-02-04T00:33:50;0.60;;;0.60;;
43363;SDS011;40636;52.424;-1.948;2024-02-04T00:36:17;1.95;;;0.50;;
43363;SDS011;40636;52.424;-1.948;2024-02-04T00:38:45;0.82;;;0.50;;
43363;SDS011;40636;52.424;-1.948;2024-02-04T00:41:12;0.50;;;0.50;;
43363;SDS011;40636;52.424;-1.948;2024-02-04T00:43:39;0.47;;;0.47;;
43363;SDS011;40636;52.424;-1.948;2024-02-04T00:46:05;0.50;;;0.50;;
43363;SDS011;40636;52.424;-1.948;2024-02-04T00:48:33;1.05;;;0.60;;
43363;SDS011;40636;52.424;-1.948;2024-02-04T00:51:00;0.50;;;0.50;;
43363;SDS011;40636;52.424;-1.948;2024-02-04T00:53:27;0.73;;;0.60;;
43363;SDS011;40636;52.424;-1.948;2024-02-04T00:56:03;0.93;;;0.50;;
43363;SDS011;40636;52.424;-1.948;2024-02-04T00:58:30;0.60;;;0.60;;
43363;SDS011;40636;52.424;-1.948;2024-02-04T01:00:57;1.60;;;0.40;;
43363;SDS011;40636;52.424;-1.948;2024-02-04T01:03:24;0.52;;;0.50;;
43363;SDS011;40636;52.424;-1.948;2024-02-04T01:05:51;0.40;;;0.40;;
43363;SDS011;40636;52.424;-1.948;2024-02-04T01:08:18;0.45;;;0.45;;
43363;SDS011;40636;52.424;-1.948;2024-02-04T01:10:45;0.45;;;0.45;;
43363;SDS011;40636;52.424;-1.948;2024-02-04T01:13:13;2.25;;;0.70;;
43363;SDS011;40636;52.424;-1.948;2024-02-04T01:15:40;0.47;;;0.47;;
43363;SDS011;40636;52.424;-1.948;2024-02-04T01:18:07;0.50;;;0.50;;
43363;SDS011;40636;52.424;-1.948;2024-02-04T01:20:34;0.85;;;0.57;;
43363;SDS011;40636;52.424;-1.948;2024-02-04T01:23:01;0.43;;;0.43;;
43363;SDS011;40636;52.424;-1.948;2024-02-04T01:25:28;0.50;;;0.50;;
43363;SDS011;40636;52.424;-1.948;2024-02-04T01:27:54;0.47;;;0.47;;
43363;SDS011;40636;52.424;-1.948;2024-02-04T01:30:21;0.55;;;0.50;;
43363;SDS011;40636;52.424;-1.948;2024-02-04T01:32:48;0.77;;;0.50;;
43363;SDS011;40636;52.424;-1.948;2024-02-04T01:35:15;0.47;;;0.47;;
43363;SDS011;40636;52.424;-1.948;2024-02-04T01:37:42;0.40;;;0.40;;
43363;SDS011;40636;52.424;-1.948;2024-02-04T01:40:15;0.40;;;0.40;;
43363;SDS011;40636;52.424;-1.948;2024-02-04T01:42:42;0.52;;;0.52;;
43363;SDS011;40636;52.424;-1.948;2024-02-04T01:45:09;0.57;;;0.57;;
43363;SDS011;40636;52.424;-1.948;2024-02-04T01:47:36;1.88;;;0.47;;
43363;SDS011;40636;52.424;-1.948;2024-02-04T01:50:03;0.52;;;0.50;;
43363;SDS011;40636;52.424;-1.948;2024-02-04T01:52:31;0.40;;;0.40;;
43363;SDS011;40636;52.424;-1.948;2024-02-04T01:55:00;0.80;;;0.55;;
43363;SDS011;40636;52.424;-1.948;2024-02-04T01:57:29;0.40;;;0.40;;
43363;SDS011;40636;52.424;-1.948;2024-02-04T01:59:56;0.45;;;0.45;;
43363;SDS011;40636;52.424;-1.948;2024-02-04T02:02:23;0.40;;;0.40;;
43363;SDS011;40636;52.424;-1.948;2024-02-04T02:04:51;0.50;;;0.50;;
43363;SDS011;40636;52.424;-1.948;2024-02-04T02:07:18;0.52;;;0.50;;
43363;SDS011;40636;52.424;-1.948;2024-02-04T02:09:48;0.40;;;0.40;;
43363;SDS011;40636;52.424;-1.948;2024-02-04T02:14:56;2.30;;;0.65;;
43363;SDS011;40636;52.424;-1.948;2024-02-04T02:17:50;0.52;;;0.52;;
43363;SDS011;40636;52.424;-1.948;2024-02-04T02:20:55;0.50;;;0.50;;
43363;SDS011;40636;52.424;-1.948;2024-02-04T02:23:36;0.70;;;0.65;;
43363;SDS011;40636;52.424;-1.948;2024-02-04T02:26:11;0.70;;;0.70;;
43363;SDS011;40636;52.424;-1.948;2024-02-04T02:28:38;1.05;;;0.55;;
43363;SDS011;40636;52.424;-1.948;2024-02-04T02:31:07;1.40;;;0.90;;
43363;SDS011;40636;52.424;-1.948;2024-02-04T02:33:34;1.13;;;0.60;;
43363;SDS011;40636;52.424;-1.948;2024-02-04T02:36:01;0.80;;;0.60;;
43363;SDS011;40636;52.424;-1.948;2024-02-04T02:41:18;0.63;;;0.63;;
43363;SDS011;40636;52.424;-1.948;2024-02-04T02:43:49;0.80;;;0.80;;
43363;SDS011;40636;52.424;-1.948;2024-02-04T02:46:18;0.82;;;0.80;;
43363;SDS011;40636;52.424;-1.948;2024-02-04T02:48:46;0.90;;;0.75;;
43363;SDS011;40636;52.424;-1.948;2024-02-04T02:51:13;0.60;;;0.55;;
43363;SDS011;40636;52.424;-1.948;2024-02-04T02:53:40;1.67;;;0.70;;
43363;SDS011;40636;52.424;-1.948;2024-02-04T02:56:06;1.42;;;0.70;;
43363;SDS011;40636;52.424;-1.948;2024-02-04T02:58:33;0.88;;;0.75;;
43363;SDS011;40636;52.424;-1.948;2024-02-04T03:01:00;0.65;;;0.65;;
43363;SDS011;40636;52.424;-1.948;2024-02-04T03:03:27;1.67;;;1.05;;
43363;SDS011;40636;52.424;-1.948;2024-02-04T03:05:54;1.02;;;0.98;;
43363;SDS011;40636;52.424;-1.948;2024-02-04T03:08:20;0.63;;;0.50;;
43363;SDS011;40636;52.424;-1.948;2024-02-04T03:10:47;0.52;;;0.52;;
43363;SDS011;40636;52.424;-1.948;2024-02-04T03:13:14;0.70;;;0.70;;
43363;SDS011;40636;52.424;-1.948;2024-02-04T03:15:41;0.60;;;0.52;;
43363;SDS011;40636;52.424;-1.948;2024-02-04T03:18:08;0.70;;;0.70;;
43363;SDS011;40636;52.424;-1.948;2024-02-04T03:20:35;0.73;;;0.73;;
43363;SDS011;40636;52.424;-1.948;2024-02-04T03:23:02;0.70;;;0.70;;
43363;SDS011;40636;52.424;-1.948;2024-02-04T03:25:29;0.60;;;0.60;;
43363;SDS011;40636;52.424;-1.948;2024-02-04T03:27:56;1.40;;;0.85;;
43363;SDS011;40636;52.424;-1.948;2024-02-04T03:30:23;0.75;;;0.70;;
43363;SDS011;40636;52.424;-1.948;2024-02-04T03:32:50;0.98;;;0.60;;
43363;SDS011;40636;52.424;-1.948;2024-02-04T03:35:17;1.05;;;0.95;;
43363;SDS011;40636;52.424;-1.948;2024-02-04T03:37:43;1.65;;;0.63;;
43363;SDS011;40636;52.424;-1.948;2024-02-04T03:40:10;1.00;;;0.73;;
43363;SDS011;40636;52.424;-1.948;2024-02-04T03:42:38;1.10;;;0.77;;
43363;SDS011;40636;52.424;-1.948;2024-02-04T03:45:05;3.10;;;0.82;;
43363;SDS011;40636;52.424;-1.948;2024-02-04T03:47:32;1.33;;;1.02;;
43363;SDS011;40636;52.424;-1.948;2024-02-04T03:49:58;2.22;;;0.95;;
43363;SDS011;40636;52.424;-1.948;2024-02-04T03:52:25;1.60;;;0.90;;
43363;SDS011;40636;52.424;-1.948;2024-02-04T03:54:52;1.55;;;0.88;;
43363;SDS011;40636;52.424;-1.948;2024-02-04T03:57:19;1.45;;;0.85;;
43363;SDS011;40636;52.424;-1.948;2024-02-04T03:59:45;1.73;;;1.15;;
43363;SDS011;40636;52.424;-1.948;2024-02-04T04:02:12;1.05;;;0.88;;
43363;SDS011;40636;52.424;-1.948;2024-02-04T04:04:39;0.90;;;0.90;;
43363;SDS011;40636;52.424;-1.948;2024-02-04T04:07:08;0.70;;;0.70;;
43363;SDS011;40636;52.424;-1.948;2024-02-04T04:09:35;3.15;;;1.02;;
43363;SDS011;40636;52.424;-1.948;2024-02-04T04:12:02;1.17;;;1.08;;
43363;SDS011;40636;52.424;-1.948;2024-02-04T04:14:29;1.08;;;0.95;;
43363;SDS011;40636;52.424;-1.948;2024-02-04T04:16:55;1.50;;;1.17;;
43363;SDS011;40636;52.424;-1.948;2024-02-04T04:19:22;1.67;;;1.10;;
43363;SDS011;40636;52.424;-1.948;2024-02-04T04:21:49;1.10;;;1.00;;
43363;SDS011;40636;52.424;-1.948;2024-02-04T04:24:16;1.63;;;1.10;;
43363;SDS011;40636;52.424;-1.948;2024-02-04T04:26:46;1.98;;;1.20;;
43363;SDS011;40636;52.424;-1.948;2024-02-04T04:29:12;1.17;;;0.90;;
43363;SDS011;40636;52.424;-1.948;2024-02-04T04:31:39;1.75;;;1.17;;
43363;SDS011;40636;52.424;-1.948;2024-02-04T04:34:06;2.08;;;1.27;;
43363;SDS011;40636;52.424;-1.948;2024-02-04T04:36:33;0.95;;;0.75;;
43363;SDS011;40636;52.424;-1.948;2024-02-04T04:39:00;2.55;;;1.15;;
43363;SDS011;40636;52.424;-1.948;2024-02-04T04:41:26;0.70;;;0.70;;
43363;SDS011;40636;52.424;-1.948;2024-02-04T04:43:53;0.93;;;0.80;;
43363;SDS011;40636;52.424;-1.948;2024-02-04T04:46:20;2.40;;;1.13;;
43363;SDS011;40636;52.424;-1.948;2024-02-04T04:48:47;1.83;;;0.77;;
43363;SDS011;40636;52.424;-1.948;2024-02-04T04:51:14;0.70;;;0.70;;
43363;SDS011;40636;52.424;-1.948;2024-02-04T04:53:41;1.30;;;0.90;;
43363;SDS011;40636;52.424;-1.948;2024-02-04T04:56:07;0.85;;;0.70;;
43363;SDS011;40636;52.424;-1.948;2024-02-04T04:58:37;2.13;;;0.80;;
43363;SDS011;40636;52.424;-1.948;2024-02-04T05:01:04;0.95;;;0.73;;
43363;SDS011;40636;52.424;-1.948;2024-02-04T05:03:32;0.80;;;0.70;;
43363;SDS011;40636;52.424;-1.948;2024-02-04T05:05:59;1.23;;;0.93;;
43363;SDS011;40636;52.424;-1.948;2024-02-04T05:08:27;3.17;;;0.90;;
43363;SDS011;40636;52.424;-1.948;2024-02-04T05:10:54;1.48;;;0.73;;
43363;SDS011;40636;52.424;-1.948;2024-02-04T05:13:21;1.65;;;0.98;;
43363;SDS011;40636;52.424;-1.948;2024-02-04T05:15:47;0.80;;;0.80;;
43363;SDS011;40636;52.424;-1.948;2024-02-04T05:18:14;1.23;;;0.73;;
43363;SDS011;40636;52.424;-1.948;2024-02-04T05:20:41;0.60;;;0.57;;
43363;SDS011;40636;52.424;-1.948;2024-02-04T05:23:10;0.80;;;0.75;;
43363;SDS011;40636;52.424;-1.948;2024-02-04T05:25:37;0.60;;;0.60;;
43363;SDS011;40636;52.424;-1.948;2024-02-04T05:28:03;1.10;;;0.68;;
43363;SDS011;40636;52.424;-1.948;2024-02-04T05:30:31;0.80;;;0.70;;
43363;SDS011;40636;52.424;-1.948;2024-02-04T05:32:57;0.55;;;0.50;;
43363;SDS011;40636;52.424;-1.948;2024-02-04T05:35:24;0.55;;;0.50;;
43363;SDS011;40636;52.424;-1.948;2024-02-04T05:37:51;0.70;;;0.70;;
43363;SDS011;40636;52.424;-1.948;2024-02-04T05:40:18;0.52;;;0.50;;
43363;SDS011;40636;52.424;-1.948;2024-02-04T05:42:47;0.60;;;0.60;;
43363;SDS011;40636;52.424;-1.948;2024-02-04T05:45:14;1.98;;;0.73;;
43363;SDS011;40636;52.424;-1.948;2024-02-04T05:47:41;0.60;;;0.52;;
43363;SDS011;40636;52.424;-1.948;2024-02-04T05:50:08;0.85;;;0.63;;
43363;SDS011;40636;52.424;-1.948;2024-02-04T05:52:35;1.05;;;0.70;;
43363;SDS011;40636;52.424;-1.948;2024-02-04T05:55:02;0.98;;;0.80;;
43363;SDS011;40636;52.424;-1.948;2024-02-04T05:57:31;1.48;;;0.80;;
43363;SDS011;40636;52.424;-1.948;2024-02-04T05:59:57;1.63;;;0.70;;
43363;SDS011;40636;52.424;-1.948;2024-02-04T06:02:27;0.88;;;0.70;;
43363;SDS011;40636;52.424;-1.948;2024-02-04T06:04:54;2.25;;;0.70;;
43363;SDS011;40636;52.424;-1.948;2024-02-04T06:07:21;0.50;;;0.50;;
43363;SDS011;40636;52.424;-1.948;2024-02-04T06:09:48;0.50;;;0.50;;
43363;SDS011;40636;52.424;-1.948;2024-02-04T06:12:15;1.35;;;0.52;;
43363;SDS011;40636;52.424;-1.948;2024-02-04T06:14:41;2.20;;;0.70;;
43363;SDS011;40636;52.424;-1.948;2024-02-04T06:17:08;0.60;;;0.60;;
43363;SDS011;40636;52.424;-1.948;2024-02-04T06:19:36;0.60;;;0.60;;
43363;SDS011;40636;52.424;-1.948;2024-02-04T06:22:03;0.75;;;0.57;;
43363;SDS011;40636;52.424;-1.948;2024-02-04T06:24:30;0.50;;;0.50;;
43363;SDS011;40636;52.424;-1.948;2024-02-04T06:26:57;1.27;;;0.80;;
43363;SDS011;40636;52.424;-1.948;2024-02-04T06:29:24;2.00;;;0.70;;
43363;SDS011;40636;52.424;-1.948;2024-02-04T06:31:51;1.58;;;0.70;;
43363;SDS011;40636;52.424;-1.948;2024-02-04T06:34:18;3.58;;;1.70;;
43363;SDS011;40636;52.424;-1.948;2024-02-04T06:36:45;1.35;;;1.00;;
43363;SDS011;40636;52.424;-1.948;2024-02-04T06:39:12;2.55;;;1.02;;
43363;SDS011;40636;52.424;-1.948;2024-02-04T06:41:39;1.45;;;0.75;;
43363;SDS011;40636;52.424;-1.948;2024-02-04T06:44:06;1.05;;;0.65;;
43363;SDS011;40636;52.424;-1.948;2024-02-04T06:46:32;0.70;;;0.70;;
43363;SDS011;40636;52.424;-1.948;2024-02-04T06:48:59;0.85;;;0.60;;
43363;SDS011;40636;52.424;-1.948;2024-02-04T06:51:26;1.15;;;0.47;;
43363;SDS011;40636;52.424;-1.948;2024-02-04T06:53:53;0.50;;;0.50;;
43363;SDS011;40636;52.424;-1.948;2024-02-04T06:56:20;1.27;;;0.60;;
43363;SDS011;40636;52.424;-1.948;2024-02-04T06:58:46;0.50;;;0.50;;
43363;SDS011;40636;52.424;-1.948;2024-02-04T07:01:14;1.08;;;0.55;;
43363;SDS011;40636;52.424;-1.948;2024-02-04T07:03:41;1.58;;;0.88;;
43363;SDS011;40636;52.424;-1.948;2024-02-04T07:06:08;1.05;;;0.85;;
43363;SDS011;40636;52.424;-1.948;2024-02-04T07:08:35;0.60;;;0.50;;
43363;SDS011;40636;52.424;-1.948;2024-02-04T07:11:02;0.75;;;0.70;;
43363;SDS011;40636;52.424;-1.948;2024-02-04T07:13:29;0.60;;;0.60;;
43363;SDS011;40636;52.424;-1.948;2024-02-04T07:15:56;1.17;;;0.70;;
43363;SDS011;40636;52.424;-1.948;2024-02-04T07:18:24;0.98;;;0.60;;
43363;SDS011;40636;52.424;-1.948;2024-02-04T07:20:51;1.40;;;0.75;;
43363;SDS011;40636;52.424;-1.948;2024-02-04T07:23:18;0.55;;;0.52;;
43363;SDS011;40636;52.424;-1.948;2024-02-04T07:25:44;0.85;;;0.50;;
43363;SDS011;40636;52.424;-1.948;2024-02-04T07:28:12;1.95;;;1.00;;
43363;SDS011;40636;52.424;-1.948;2024-02-04T07:30:39;1.10;;;1.00;;
43363;SDS011;40636;52.424;-1.948;2024-02-04T07:33:05;0.75;;;0.70;;
43363;SDS011;40636;52.424;-1.948;2024-02-04T07:35:32;0.60;;;0.60;;
43363;SDS011;40636;52.424;-1.948;2024-02-04T07:37:59;1.33;;;0.70;;
43363;SDS011;40636;52.424;-1.948;2024-02-04T07:40:26;1.58;;;0.80;;
43363;SDS011;40636;52.424;-1.948;2024-02-04T07:42:54;1.17;;;0.50;;
43363;SDS011;40636;52.424;-1.948;2024-02-04T07:45:21;1.02;;;0.80;;
43363;SDS011;40636;52.424;-1.948;2024-02-04T07:47:48;2.13;;;0.85;;
43363;SDS011;40636;52.424;-1.948;2024-02-04T07:50:15;1.15;;;1.05;;
43363;SDS011;40636;52.424;-1.948;2024-02-04T07:52:42;4.70;;;1.20;;
43363;SDS011;40636;52.424;-1.948;2024-02-04T07:55:10;0.90;;;0.70;;
43363;SDS011;40636;52.424;-1.948;2024-02-04T07:57:37;1.30;;;0.70;;
43363;SDS011;40636;52.424;-1.948;2024-02-04T08:00:04;0.70;;;0.70;;
43363;SDS011;40636;52.424;-1.948;2024-02-04T08:02:32;0.70;;;0.60;;
43363;SDS011;40636;52.424;-1.948;2024-02-04T08:04:59;0.80;;;0.80;;
43363;SDS011;40636;52.424;-1.948;2024-02-04T08:07:27;0.77;;;0.77;;
43363;SDS011;40636;52.424;-1.948;2024-02-04T08:09:53;4.13;;;0.90;;
43363;SDS011;40636;52.424;-1.948;2024-02-04T08:12:21;2.58;;;0.82;;
43363;SDS011;40636;52.424;-1.948;2024-02-04T08:14:48;1.02;;;0.80;;
43363;SDS011;40636;52.424;-1.948;2024-02-04T08:17:15;0.82;;;0.80;;
43363;SDS011;40636;52.424;-1.948;2024-02-04T08:19:42;2.30;;;1.70;;
43363;SDS011;40636;52.424;-1.948;2024-02-04T08:22:08;2.88;;;1.33;;
43363;SDS011;40636;52.424;-1.948;2024-02-04T08:24:36;0.57;;;0.57;;
43363;SDS011;40636;52.424;-1.948;2024-02-04T08:27:03;1.00;;;0.90;;
43363;SDS011;40636;52.424;-1.948;2024-02-04T08:29:30;1.95;;;0.90;;
43363;SDS011;40636;52.424;-1.948;2024-02-04T08:31:57;2.00;;;1.00;;
43363;SDS011;40636;52.424;-1.948;2024-02-04T08:34:24;2.08;;;1.00;;
43363;SDS011;40636;52.424;-1.948;2024-02-04T08:36:52;1.05;;;0.60;;
43363;SDS011;40636;52.424;-1.948;2024-02-04T08:39:19;2.67;;;0.80;;
43363;SDS011;40636;52.424;-1.948;2024-02-04T08:41:46;1.92;;;0.85;;
43363;SDS011;40636;52.424;-1.948;2024-02-04T08:44:12;1.65;;;0.70;;
43363;SDS011;40636;52.424;-1.948;2024-02-04T08:46:57;2.10;;;1.00;;
43363;SDS011;40636;52.424;-1.948;2024-02-04T08:49:24;0.80;;;0.80;;
43363;SDS011;40636;52.424;-1.948;2024-02-04T08:51:51;1.45;;;0.73;;
43363;SDS011;40636;52.424;-1.948;2024-02-04T08:54:18;3.47;;;0.95;;
43363;SDS011;40636;52.424;-1.948;2024-02-04T08:56:45;1.60;;;1.00;;
43363;SDS011;40636;52.424;-1.948;2024-02-04T08:59:11;2.83;;;1.02;;
43363;SDS011;40636;52.424;-1.948;2024-02-04T09:01:38;1.35;;;0.95;;
43363;SDS011;40636;52.424;-1.948;2024-02-04T09:04:05;1.60;;;1.15;;
43363;SDS011;40636;52.424;-1.948;2024-02-04T09:06:32;2.15;;;1.13;;
43363;SDS011;40636;52.424;-1.948;2024-02-04T09:08:59;2.05;;;1.00;;
43363;SDS011;40636;52.424;-1.948;2024-02-04T09:11:25;1.63;;;1.00;;
43363;SDS011;40636;52.424;-1.948;2024-02-04T09:13:52;1.13;;;0.90;;
43363;SDS011;40636;52.424;-1.948;2024-02-04T09:16:19;1.50;;;0.85;;
43363;SDS011;40636;52.424;-1.948;2024-02-04T09:18:46;4.43;;;1.00;;
43363;SDS011;40636;52.424;-1.948;2024-02-04T09:21:13;1.80;;;1.20;;
43363;SDS011;40636;52.424;-1.948;2024-02-04T09:23:40;2.53;;;0.88;;
43363;SDS011;40636;52.424;-1.948;2024-02-04T09:26:07;0.80;;;0.80;;
43363;SDS011;40636;52.424;-1.948;2024-02-04T09:28:34;1.83;;;1.00;;
43363;SDS011;40636;52.424;-1.948;2024-02-04T09:31:01;0.80;;;0.70;;
43363;SDS011;40636;52.424;-1.948;2024-02-04T09:33:30;1.70;;;0.90;;
43363;SDS011;40636;52.424;-1.948;2024-02-04T09:35:57;1.38;;;0.70;;
43363;SDS011;40636;52.424;-1.948;2024-02-04T09:38:24;1.48;;;0.90;;
43363;SDS011;40636;52.424;-1.948;2024-02-04T09:40:51;2.33;;;1.00;;
43363;SDS011;40636;52.424;-1.948;2024-02-04T09:43:18;3.22;;;0.90;;
43363;SDS011;40636;52.424;-1.948;2024-02-04T09:45:45;2.20;;;1.15;;
43363;SDS011;40636;52.424;-1.948;2024-02-04T09:48:17;1.05;;;0.95;;
43363;SDS011;40636;52.424;-1.948;2024-02-04T09:50:47;2.03;;;1.00;;
43363;SDS011;40636;52.424;-1.948;2024-02-04T09:53:15;2.75;;;1.00;;
43363;SDS011;40636;52.424;-1.948;2024-02-04T09:55:49;1.63;;;1.35;;
43363;SDS011;40636;52.424;-1.948;2024-02-04T09:58:17;3.40;;;1.15;;
43363;SDS011;40636;52.424;-1.948;2024-02-04T10:00:44;2.50;;;1.00;;
43363;SDS011;40636;52.424;-1.948;2024-02-04T10:03:14;1.45;;;0.82;;
43363;SDS011;40636;52.424;-1.948;2024-02-04T10:05:40;2.22;;;0.98;;
43363;SDS011;40636;52.424;-1.948;2024-02-04T10:08:07;4.25;;;1.30;;
43363;SDS011;40636;52.424;-1.948;2024-02-04T10:10:34;1.50;;;0.88;;
43363;SDS011;40636;52.424;-1.948;2024-02-04T10:13:06;1.92;;;1.08;;
43363;SDS011;40636;52.424;-1.948;2024-02-04T10:15:33;2.65;;;1.52;;
43363;SDS011;40636;52.424;-1.948;2024-02-04T10:18:04;2.58;;;1.10;;
43363;SDS011;40636;52.424;-1.948;2024-02-04T10:20:32;3.45;;;1.17;;
43363;SDS011;40636;52.424;-1.948;2024-02-04T10:22:58;4.03;;;1.63;;
43363;SDS011;40636;52.424;-1.948;2024-02-04T10:25:25;2.60;;;0.90;;
43363;SDS011;40636;52.424;-1.948;2024-02-04T10:27:53;3.15;;;1.38;;
43363;SDS011;40636;52.424;-1.948;2024-02-04T10:30:21;4.15;;;1.17;;
43363;SDS011;40636;52.424;-1.948;2024-02-04T10:32:51;3.10;;;1.20;;
43363;SDS011;40636;52.424;-1.948;2024-02-04T10:35:22;1.63;;;0.95;;
43363;SDS011;40636;52.424;-1.948;2024-02-04T10:37:50;1.65;;;0.90;;
43363;SDS011;40636;52.424;-1.948;2024-02-04T10:40:18;3.22;;;1.80;;
43363;SDS011;40636;52.424;-1.948;2024-02-04T10:42:46;2.75;;;1.52;;
43363;SDS011;40636;52.424;-1.948;2024-02-04T10:45:13;3.38;;;1.30;;
43363;SDS011;40636;52.424;-1.948;2024-02-04T10:47:43;3.72;;;1.42;;
43363;SDS011;40636;52.424;-1.948;2024-02-04T10:50:15;4.22;;;1.67;;
43363;SDS011;40636;52.424;-1.948;2024-02-04T10:52:43;4.07;;;1.50;;
43363;SDS011;40636;52.424;-1.948;2024-02-04T10:55:13;3.92;;;1.58;;
43363;SDS011;40636;52.424;-1.948;2024-02-04T10:57:43;5.25;;;1.52;;
43363;SDS011;40636;52.424;-1.948;2024-02-04T11:00:10;2.70;;;1.50;;
43363;SDS011;40636;52.424;-1.948;2024-02-04T11:02:39;2.42;;;1.63;;
43363;SDS011;40636;52.424;-1.948;2024-02-04T11:05:09;3.78;;;1.58;;
43363;SDS011;40636;52.424;-1.948;2024-02-04T11:07:36;6.07;;;1.38;;
43363;SDS011;40636;52.424;-1.948;2024-02-04T11:10:03;4.35;;;1.48;;
43363;SDS011;40636;52.424;-1.948;2024-02-04T11:12:31;4.25;;;1.60;;
43363;SDS011;40636;52.424;-1.948;2024-02-04T11:15:03;7.78;;;1.92;;
43363;SDS011;40636;52.424;-1.948;2024-02-04T11:28:04;6.88;;;1.58;;
43363;SDS011;40636;52.424;-1.948;2024-02-04T11:30:32;5.07;;;2.13;;
43363;SDS011;40636;52.424;-1.948;2024-02-04T11:33:00;3.67;;;1.55;;
43363;SDS011;40636;52.424;-1.948;2024-02-04T11:35:27;4.47;;;1.63;;
43363;SDS011;40636;52.424;-1.948;2024-02-04T11:37:54;2.75;;;1.60;;
43363;SDS011;40636;52.424;-1.948;2024-02-04T11:40:29;3.80;;;1.20;;
43363;SDS011;40636;52.424;-1.948;2024-02-04T11:43:09;3.30;;;1.38;;
43363;SDS011;40636;52.424;-1.948;2024-02-04T11:45:38;3.70;;;1.27;;
43363;SDS011;40636;52.424;-1.948;2024-02-04T11:48:06;3.72;;;1.42;;
43363;SDS011;40636;52.424;-1.948;2024-02-04T11:50:36;3.25;;;1.40;;
43363;SDS011;40636;52.424;-1.948;2024-02-04T11:53:05;3.55;;;1.00;;
43363;SDS011;40636;52.424;-1.948;2024-02-04T11:55:36;4.35;;;1.33;;
43363;SDS011;40636;52.424;-1.948;2024-02-04T11:58:10;3.08;;;1.08;;
43363;SDS011;40636;52.424;-1.948;2024-02-04T12:00:41;1.42;;;1.08;;
43363;SDS011;40636;52.424;-1.948;2024-02-04T12:03:10;1.52;;;0.90;;
43363;SDS011;40636;52.424;-1.948;2024-02-04T12:05:37;4.47;;;1.27;;
43363;SDS011;40636;52.424;-1.948;2024-02-04T12:08:07;2.08;;;1.00;;
43363;SDS011;40636;52.424;-1.948;2024-02-04T12:10:35;1.75;;;1.42;;
43363;SDS011;40636;52.424;-1.948;2024-02-04T12:13:03;2.28;;;0.90;;
43363;SDS011;40636;52.424;-1.948;2024-02-04T12:15:31;1.10;;;0.88;;
43363;SDS011;40636;52.424;-1.948;2024-02-04T12:18:06;1.65;;;0.85;;
43363;SDS011;40636;52.424;-1.948;2024-02-04T12:20:34;1.20;;;0.68;;
43363;SDS011;40636;52.424;-1.948;2024-02-04T12:23:02;1.20;;;0.60;;
43363;SDS011;40636;52.424;-1.948;2024-02-04T12:25:30;1.25;;;0.70;;
43363;SDS011;40636;52.424;-1.948;2024-02-04T12:27:58;2.13;;;0.88;;
43363;SDS011;40636;52.424;-1.948;2024-02-04T12:30:26;0.75;;;0.52;;
43363;SDS011;40636;52.424;-1.948;2024-02-04T12:32:59;1.75;;;0.50;;
43363;SDS011;40636;52.424;-1.948;2024-02-04T12:35:27;1.23;;;0.40;;
43363;SDS011;40636;52.424;-1.948;2024-02-04T12:37:55;0.52;;;0.52;;
43363;SDS011;40636;52.424;-1.948;2024-02-04T12:40:30;0.52;;;0.47;;
43363;SDS011;40636;52.424;-1.948;2024-02-04T12:43:01;0.40;;;0.40;;
43363;SDS011;40636;52.424;-1.948;2024-02-04T12:45:32;0.50;;;0.50;;
43363;SDS011;40636;52.424;-1.948;2024-02-04T12:48:00;0.45;;;0.40;;
43363;SDS011;40636;52.424;-1.948;2024-02-04T12:50:28;0.40;;;0.40;;
43363;SDS011;40636;52.424;-1.948;2024-02-04T12:53:07;0.50;;;0.50;;
43363;SDS011;40636;52.424;-1.948;2024-02-04T12:55:36;0.50;;;0.50;;
43363;SDS011;40636;52.424;-1.948;2024-02-04T12:58:07;0.40;;;0.40;;
43363;SDS011;40636;52.424;-1.948;2024-02-04T13:00:41;0.73;;;0.40;;
43363;SDS011;40636;52.424;-1.948;2024-02-04T13:03:08;0.30;;;0.30;;
43363;SDS011;40636;52.424;-1.948;2024-02-04T13:05:36;0.45;;;0.40;;
43363;SDS011;40636;52.424;-1.948;2024-02-04T13:08:04;2.63;;;0.65;;
43363;SDS011;40636;52.424;-1.948;2024-02-04T13:10:35;0.30;;;0.30;;
43363;SDS011;40636;52.424;-1.948;2024-02-04T13:13:09;0.43;;;0.43;;
43363;SDS011;40636;52.424;-1.948;2024-02-04T13:15:38;0.40;;;0.40;;
43363;SDS011;40636;52.424;-1.948;2024-02-04T13:18:07;0.90;;;0.57;;
43363;SDS011;40636;52.424;-1.948;2024-02-04T13:20:35;0.75;;;0.50;;
43363;SDS011;40636;52.424;-1.948;2024-02-04T13:23:02;0.40;;;0.40;;
43363;SDS011;40636;52.424;-1.948;2024-02-04T13:25:31;0.32;;;0.30;;
43363;SDS011;40636;52.424;-1.948;2024-02-04T13:27:58;0.60;;;0.60;;
43363;SDS011;40636;52.424;-1.948;2024-02-04T13:30:27;1.77;;;0.57;;
43363;SDS011;40636;52.424;-1.948;2024-02-04T13:37:57;0.47;;;0.47;;
43363;SDS011;40636;52.424;-1.948;2024-02-04T13:40:23;0.57;;;0.57;;
43363;SDS011;40636;52.424;-1.948;2024-02-04T13:42:51;0.40;;;0.40;;
43363;SDS011;40636;52.424;-1.948;2024-02-04T13:45:18;0.40;;;0.40;;
43363;SDS011;40636;52.424;-1.948;2024-02-04T13:47:45;0.52;;;0.40;;
43363;SDS011;40636;52.424;-1.948;2024-02-04T13:50:12;0.70;;;0.30;;
43363;SDS011;40636;52.424;-1.948;2024-02-04T13:52:39;0.55;;;0.50;;
43363;SDS011;40636;52.424;-1.948;2024-02-04T13:55:07;0.70;;;0.60;;
43363;SDS011;40636;52.424;-1.948;2024-02-04T13:57:34;1.15;;;0.60;;
43363;SDS011;40636;52.424;-1.948;2024-02-04T14:00:02;0.57;;;0.50;;
43363;SDS011;40636;52.424;-1.948;2024-02-04T14:02:34;1.30;;;1.20;;
43363;SDS011;40636;52.424;-1.948;2024-02-04T14:05:02;1.65;;;0.68;;
43363;SDS011;40636;52.424;-1.948;2024-02-04T14:07:29;1.10;;;0.70;;
43363;SDS011;40636;52.424;-1.948;2024-02-04T14:09:56;2.53;;;1.20;;
43363;SDS011;40636;52.424;-1.948;2024-02-04T14:12:23;1.85;;;1.25;;
43363;SDS011;40636;52.424;-1.948;2024-02-04T14:14:50;1.83;;;1.08;;
43363;SDS011;40636;52.424;-1.948;2024-02-04T14:17:17;2.60;;;0.80;;
43363;SDS011;40636;52.424;-1.948;2024-02-04T14:19:45;2.25;;;0.80;;
43363;SDS011;40636;52.424;-1.948;2024-02-04T14:22:15;1.00;;;0.70;;
43363;SDS011;40636;52.424;-1.948;2024-02-04T14:24:46;1.65;;;0.60;;
43363;SDS011;40636;52.424;-1.948;2024-02-04T14:27:16;4.63;;;1.15;;
43363;SDS011;40636;52.424;-1.948;2024-02-04T14:29:44;1.30;;;0.80;;
43363;SDS011;40636;52.424;-1.948;2024-02-04T14:32:12;3.17;;;0.80;;
43363;SDS011;40636;52.424;-1.948;2024-02-04T14:34:39;3.08;;;0.85;;
43363;SDS011;40636;52.424;-1.948;2024-02-04T14:37:10;1.17;;;0.90;;
43363;SDS011;40636;52.424;-1.948;2024-02-04T14:39:40;3.00;;;1.02;;
43363;SDS011;40636;52.424;-1.948;2024-02-04T14:42:10;1.13;;;0.75;;
43363;SDS011;40636;52.424;-1.948;2024-02-04T14:44:37;2.90;;;0.98;;
43363;SDS011;40636;52.424;-1.948;2024-02-04T14:47:04;2.28;;;0.85;;
43363;SDS011;40636;52.424;-1.948;2024-02-04T14:49:32;2.30;;;1.05;;
43363;SDS011;40636;52.424;-1.948;2024-02-04T14:52:03;2.80;;;1.38;;
43363;SDS011;40636;52.424;-1.948;2024-02-04T14:54:30;1.42;;;0.77;;
43363;SDS011;40636;52.424;-1.948;2024-02-04T14:56:57;3.95;;;1.00;;
43363;SDS011;40636;52.424;-1.948;2024-02-04T14:59:24;1.92;;;1.13;;